Flight Track Log - Related Links

Times and Time Zones

All times are in EDT time to prevent confusion due to time zone crossing. See the FLG4158 flight status page for this flight to view local times or setup timezone preferences in your user account.

Time Position Orientation Groundspeed Altitude Reporting Facility
EDT Latitude Longitude Course Direction KTS MPH feet Rate Location/Type
Sun 09:56:51 PM 42.1822 -83.3853 North 193 222 3,000  Level Cleveland Center
Sun 09:57:58 PM 42.1450 -83.4594 236° Southwest 238 274 6,200 2,870 Climbing Cleveland Center
Sun 09:58:46 PM 42.1725 -83.5167 303° West 252 290 8,500 2,092 Climbing Cleveland Center
Sun 09:59:00 PM 42.5257 -83.3500 North  Level FlightAware Approximate
Sun 09:59:47 PM 42.2358 -83.5728 327° Northwest 284 327 10,000  Level Cleveland Center
Sun 10:00:00 PM 42.6071 -83.3500 North  Level FlightAware Approximate
Sun 10:00:54 PM 42.3283 -83.6222 338° Northwest 359 413 10,000  Level Cleveland Center
Sun 10:01:00 PM 42.6666 -83.3500 North  Level FlightAware Approximate
Sun 10:01:43 PM 42.4089 -83.6514 345° North 355 409 10,000  Level Cleveland Center
Sun 10:02:00 PM 42.7261 -83.3500 North  Level FlightAware Approximate
Sun 10:02:43 PM 42.5017 -83.6839 346° North 344 396 10,000  Level Cleveland Center
Sun 10:04:00 PM 42.5949 -83.6785 North  Level FlightAware Approximate
Sun 10:11:00 PM 43.0810 -83.8848 340° North  Level Estimated
Sun 10:12:00 PM 43.1504 -83.9145 334° Northwest  Level Estimated
Sun 10:13:00 PM 43.2198 -83.9443 340° North  Level Estimated
Sun 10:14:00 PM 43.2892 -83.9742 340° North  Level Estimated
Sun 10:15:00 PM 43.3586 -84.0041 336° Northwest  Level Estimated
Sun 10:16:00 PM 43.4279 -84.0341 331° Northwest  Level Estimated
Sun 10:17:00 PM 43.4973 -84.0642 346° North  Level Estimated
Sun 10:18:00 PM 43.5167 -84.0667 346° North  Level FlightAware Approximate
Sun 10:19:00 PM 43.5329 -84.0796 346° North  Level Estimated

Login

Don't have an account? Register now (free) for customized features, flight alerts, and more!